Time;durP1;ratioP1;P1;durP2;ratioP2;P2;SDS_P1;SDS_P2;PMS_P1;PMS_P2;Temp;Humidity;BMP_temperature;BMP_pressure;BME280_temperature;BME280_humidity;BME280_pressure;Samples;Min_cycle;Max_cycle;Signal;HPM_P1;HPM_P2
2022/08/05 00:01:10;;;;;;;3.90;1.70;;;;;;;;;;5032728;28;20065;-75
2022/08/05 00:03:36;;;;;;;4.28;2.00;;;;;;;;;;5031786;28;20048;-76
2022/08/05 00:06:02;;;;;;;2.50;1.75;;;;;;;;;;5032892;28;20041;-76
2022/08/05 00:08:28;;;;;;;2.42;1.85;;;;;;;;;;5032845;28;20119;-76
2022/08/05 00:10:54;;;;;;;3.08;1.80;;;;;;;;;;5031795;28;20046;-76
2022/08/05 00:13:20;;;;;;;3.67;2.00;;;;;;;;;;5049654;28;20044;-76
2022/08/05 00:15:46;;;;;;;3.45;1.85;;;;;;;;;;5051128;28;20131;-75
2022/08/05 00:18:12;;;;;;;3.40;1.70;;;;;;;;;;5050479;28;20055;-76
2022/08/05 00:20:38;;;;;;;6.03;1.92;;;;;;;;;;5051238;28;20076;-76
2022/08/05 00:23:04;;;;;;;2.45;1.80;;;;;;;;;;5051440;28;20397;-76
2022/08/05 00:25:30;;;;;;;3.03;1.60;;;;;;;;;;5050569;28;20507;-76
2022/08/05 00:27:56;;;;;;;1.85;1.52;;;;;;;;;;5051353;28;20041;-76
2022/08/05 00:30:22;;;;;;;2.67;1.80;;;;;;;;;;5037267;28;20103;-75
2022/08/05 00:32:48;;;;;;;2.35;1.80;;;;;;;;;;5042690;28;20037;-75
2022/08/05 00:35:14;;;;;;;1.90;1.67;;;;;;;;;;5050729;28;20505;-75
2022/08/05 00:37:40;;;;;;;2.42;1.65;;;;;;;;;;5052525;28;20045;-75
2022/08/05 00:40:07;;;;;;;4.20;2.00;;;;;;;;;;5033084;28;20048;-76
2022/08/05 00:42:34;;;;;;;2.30;1.80;;;;;;;;;;5035760;28;20492;-75
2022/08/05 00:45:01;;;;;;;4.47;1.77;;;;;;;;;;5031022;28;20045;-75
2022/08/05 00:47:27;;;;;;;1.98;1.73;;;;;;;;;;5031305;28;20052;-76
2022/08/05 00:49:53;;;;;;;1.70;1.60;;;;;;;;;;5064712;28;20125;-75
2022/08/05 00:52:19;;;;;;;3.55;1.67;;;;;;;;;;5033188;28;20548;-75
2022/08/05 00:54:45;;;;;;;2.60;1.77;;;;;;;;;;5050182;28;20045;-75
2022/08/05 00:57:11;;;;;;;2.80;1.77;;;;;;;;;;5052440;28;20124;-76
2022/08/05 00:59:37;;;;;;;1.73;1.63;;;;;;;;;;5050948;28;20143;-76
2022/08/05 01:02:03;;;;;;;2.45;1.85;;;;;;;;;;5038676;28;20131;-76
2022/08/05 01:04:29;;;;;;;1.85;1.73;;;;;;;;;;5050660;28;20531;-76
2022/08/05 01:06:55;;;;;;;2.35;1.80;;;;;;;;;;5051457;28;20048;-76
2022/08/05 01:09:22;;;;;;;3.00;1.67;;;;;;;;;;5050680;28;20335;-76
2022/08/05 01:11:49;;;;;;;1.90;1.70;;;;;;;;;;5049613;28;20128;-76
2022/08/05 01:14:20;;;;;;;2.63;1.67;;;;;;;;;;5050334;28;20546;-76
2022/08/05 01:16:52;;;;;;;2.80;1.70;;;;;;;;;;5041672;28;20084;-76
2022/08/05 01:19:25;;;;;;;1.80;1.70;;;;;;;;;;5031866;28;20052;-76
2022/08/05 01:21:57;;;;;;;2.67;1.80;;;;;;;;;;5030981;28;20057;-76
2022/08/05 01:24:30;;;;;;;3.28;1.83;;;;;;;;;;5035053;28;20494;-76
2022/08/05 01:26:56;;;;;;;3.58;1.90;;;;;;;;;;5034666;28;20045;-75
2022/08/05 01:29:26;;;;;;;2.33;1.80;;;;;;;;;;5034378;28;20049;-75
2022/08/05 01:31:54;;;;;;;3.55;1.98;;;;;;;;;;5036214;28;20541;-75
2022/08/05 01:34:22;;;;;;;4.18;1.90;;;;;;;;;;5054013;28;20080;-75
2022/08/05 01:36:50;;;;;;;4.35;2.20;;;;;;;;;;5053275;28;20041;-76
2022/08/05 01:39:17;;;;;;;2.55;1.77;;;;;;;;;;5038527;28;20049;-76
2022/08/05 01:41:45;;;;;;;2.35;1.60;;;;;;;;;;5041249;28;20052;-75
2022/08/05 01:44:13;;;;;;;2.63;1.83;;;;;;;;;;5048933;28;20037;-75
2022/08/05 01:46:39;;;;;;;3.75;2.00;;;;;;;;;;5035247;28;20049;-76
2022/08/05 01:49:05;;;;;;;3.38;2.00;;;;;;;;;;5033113;28;20174;-75
2022/08/05 01:51:34;;;;;;;2.22;1.70;;;;;;;;;;5067436;28;20057;-76
2022/08/05 01:54:02;;;;;;;3.55;1.83;;;;;;;;;;5066977;28;20394;-76
2022/08/05 01:56:33;;;;;;;4.70;1.80;;;;;;;;;;5065947;28;20092;-76
2022/08/05 01:59:00;;;;;;;2.05;1.60;;;;;;;;;;5034983;28;20497;-75
2022/08/05 02:01:27;;;;;;;3.58;1.63;;;;;;;;;;5066900;28;20132;-76
2022/08/05 02:03:55;;;;;;;2.30;1.77;;;;;;;;;;5083750;28;20048;-76
2022/08/05 02:06:21;;;;;;;2.40;1.50;;;;;;;;;;5053649;28;20049;-76
2022/08/05 02:08:47;;;;;;;1.90;1.70;;;;;;;;;;5045276;28;20393;-75
2022/08/05 02:11:15;;;;;;;2.05;1.60;;;;;;;;;;5034135;28;20052;-76
2022/08/05 02:13:47;;;;;;;1.92;1.73;;;;;;;;;;5034558;28;20539;-76
2022/08/05 02:16:16;;;;;;;2.42;1.80;;;;;;;;;;5034903;28;20052;-76
2022/08/05 02:18:44;;;;;;;2.83;1.60;;;;;;;;;;5065949;28;20090;-76
2022/08/05 02:21:15;;;;;;;1.67;1.58;;;;;;;;;;5065941;28;20066;-76
2022/08/05 02:23:43;;;;;;;2.78;1.80;;;;;;;;;;5033750;28;20076;-76
2022/08/05 02:26:10;;;;;;;1.60;1.50;;;;;;;;;;5032671;28;20103;-76
2022/08/05 02:28:37;;;;;;;2.92;1.60;;;;;;;;;;5043924;28;20480;-76
2022/08/05 02:31:23;;;;;;;2.30;1.85;;;;;;;;;;5054007;28;20052;-76
2022/08/05 02:34:10;;;;;;;2.67;1.75;;;;;;;;;;5051242;28;20082;-76
2022/08/05 02:36:38;;;;;;;1.90;1.75;;;;;;;;;;5052850;28;20053;-76
2022/08/05 02:39:05;;;;;;;4.38;2.10;;;;;;;;;;5032863;28;20052;-76
2022/08/05 02:41:33;;;;;;;2.80;1.90;;;;;;;;;;5034415;28;20048;-76
2022/08/05 02:44:00;;;;;;;2.13;1.70;;;;;;;;;;5042769;28;20099;-76
2022/08/05 02:46:26;;;;;;;1.92;1.70;;;;;;;;;;5048959;28;20049;-75
2022/08/05 02:48:53;;;;;;;2.03;1.80;;;;;;;;;;5032763;28;20050;-76
2022/08/05 02:51:19;;;;;;;2.67;1.90;;;;;;;;;;5034090;28;20101;-75
2022/08/05 02:53:46;;;;;;;2.28;1.70;;;;;;;;;;5033230;28;20507;-75
2022/08/05 02:56:13;;;;;;;2.13;1.60;;;;;;;;;;5034059;28;20076;-76
2022/08/05 02:58:42;;;;;;;4.38;1.85;;;;;;;;;;5033692;28;20072;-76
2022/08/05 03:01:14;;;;;;;3.53;1.80;;;;;;;;;;5084437;28;20059;-75
2022/08/05 03:03:40;;;;;;;2.75;1.70;;;;;;;;;;5054064;28;20041;-76
2022/08/05 03:06:07;;;;;;;2.53;1.95;;;;;;;;;;5043728;28;20486;-76
2022/08/05 03:08:34;;;;;;;3.65;1.70;;;;;;;;;;5044071;28;20052;-75
2022/08/05 03:11:00;;;;;;;1.70;1.60;;;;;;;;;;5052064;28;20102;-76
2022/08/05 03:13:26;;;;;;;2.33;1.48;;;;;;;;;;5049914;28;20037;-75
2022/08/05 03:15:52;;;;;;;2.08;1.50;;;;;;;;;;5052257;28;20047;-75
2022/08/05 03:18:18;;;;;;;1.88;1.50;;;;;;;;;;5053693;28;20043;-75
2022/08/05 03:20:44;;;;;;;2.65;1.45;;;;;;;;;;5047065;28;20846;-75
2022/08/05 03:23:11;;;;;;;1.83;1.55;;;;;;;;;;5032141;28;20049;-75
2022/08/05 03:25:37;;;;;;;2.60;1.70;;;;;;;;;;5043695;28;20052;-76
2022/08/05 03:28:04;;;;;;;2.38;1.60;;;;;;;;;;5049567;28;20099;-75
2022/08/05 03:30:31;;;;;;;2.50;1.60;;;;;;;;;;5065296;28;20115;-76
2022/08/05 03:33:01;;;;;;;1.60;1.48;;;;;;;;;;5047327;28;20041;-75
2022/08/05 03:35:27;;;;;;;2.25;1.60;;;;;;;;;;5037783;28;20045;-76
2022/08/05 03:37:56;;;;;;;3.20;1.70;;;;;;;;;;5032941;28;20500;-76
2022/08/05 03:40:22;;;;;;;2.83;1.50;;;;;;;;;;5065322;28;20266;-75
2022/08/05 03:42:48;;;;;;;2.22;1.52;;;;;;;;;;5032484;28;20037;-75
2022/08/05 03:45:14;;;;;;;3.15;1.50;;;;;;;;;;5046910;28;20055;-75
2022/08/05 03:47:40;;;;;;;3.17;1.52;;;;;;;;;;5052662;28;20473;-76
2022/08/05 03:50:07;;;;;;;1.63;1.50;;;;;;;;;;5051090;28;20044;-75
2022/08/05 03:52:34;;;;;;;1.60;1.50;;;;;;;;;;5053160;28;20095;-75
2022/08/05 03:55:02;;;;;;;1.80;1.70;;;;;;;;;;5039597;28;20107;-76
2022/08/05 03:57:32;;;;;;;2.53;1.75;;;;;;;;;;5050611;28;20453;-76
2022/08/05 04:00:02;;;;;;;3.45;1.70;;;;;;;;;;5052015;28;20064;-75
2022/08/05 04:02:30;;;;;;;2.63;1.50;;;;;;;;;;5051352;28;20071;-76
2022/08/05 04:04:58;;;;;;;3.40;1.60;;;;;;;;;;5051979;28;20057;-75
2022/08/05 04:07:25;;;;;;;2.85;1.67;;;;;;;;;;5051692;28;20070;-76
2022/08/05 04:09:52;;;;;;;2.67;1.50;;;;;;;;;;5035970;28;20451;-75
2022/08/05 04:12:18;;;;;;;1.70;1.40;;;;;;;;;;5031822;28;20072;-75
2022/08/05 04:14:44;;;;;;;2.17;1.50;;;;;;;;;;5036031;28;20048;-75
2022/08/05 04:17:10;;;;;;;1.80;1.40;;;;;;;;;;5045381;28;20041;-75
2022/08/05 04:19:44;;;;;;;2.30;1.40;;;;;;;;;;5064444;28;20046;-76
2022/08/05 04:22:09;;;;;;;;;;;;;;;;;;5032540;28;20053;-76
2022/08/05 04:24:36;;;;;;;1.70;1.60;;;;;;;;;;5030828;28;19928;-76
2022/08/05 04:27:02;;;;;;;3.63;1.40;;;;;;;;;;5032746;28;20187;-75
2022/08/05 04:29:28;;;;;;;2.90;1.55;;;;;;;;;;5064551;28;20050;-75
2022/08/05 04:31:54;;;;;;;1.63;1.52;;;;;;;;;;5080711;28;20509;-76
2022/08/05 04:34:20;;;;;;;1.90;1.52;;;;;;;;;;5052563;28;20045;-75
2022/08/05 04:36:46;;;;;;;1.48;1.38;;;;;;;;;;5039021;28;20154;-75
2022/08/05 04:39:12;;;;;;;3.80;1.60;;;;;;;;;;5036559;28;20039;-76
2022/08/05 04:41:38;;;;;;;2.80;1.60;;;;;;;;;;5039644;28;20057;-75
2022/08/05 04:44:05;;;;;;;3.75;1.70;;;;;;;;;;5036448;28;20098;-75
2022/08/05 04:46:30;;;;;;;2.95;1.75;;;;;;;;;;5050427;28;20098;-75
2022/08/05 04:48:56;;;;;;;2.15;1.50;;;;;;;;;;5044783;28;20543;-75
2022/08/05 04:51:23;;;;;;;2.33;1.58;;;;;;;;;;5030476;28;20077;-75
2022/08/05 04:53:49;;;;;;;4.00;1.60;;;;;;;;;;5031738;28;20041;-75
2022/08/05 04:56:15;;;;;;;2.03;1.42;;;;;;;;;;5030925;28;20046;-75
2022/08/05 04:58:41;;;;;;;2.40;1.63;;;;;;;;;;5034593;28;20041;-75
2022/08/05 05:01:07;;;;;;;2.08;1.52;;;;;;;;;;5067548;28;20136;-76
2022/08/05 05:03:33;;;;;;;2.53;1.60;;;;;;;;;;5067897;28;20473;-76
2022/08/05 05:05:59;;;;;;;3.63;1.70;;;;;;;;;;5033799;28;20103;-75
2022/08/05 05:08:25;;;;;;;2.13;1.45;;;;;;;;;;5071274;28;20408;-75
2022/08/05 05:10:51;;;;;;;2.92;1.80;;;;;;;;;;5055566;28;20040;-75
2022/08/05 05:13:17;;;;;;;3.85;1.50;;;;;;;;;;5055180;28;20049;-75
2022/08/05 05:15:44;;;;;;;1.92;1.58;;;;;;;;;;5051026;28;20092;-75
2022/08/05 05:18:17;;;;;;;1.92;1.45;;;;;;;;;;5068091;28;20052;-75
2022/08/05 05:20:47;;;;;;;2.30;1.58;;;;;;;;;;5040453;28;20044;-75
2022/08/05 05:23:13;;;;;;;2.42;1.50;;;;;;;;;;5054293;28;20059;-75
2022/08/05 05:25:42;;;;;;;3.10;1.50;;;;;;;;;;5055768;28;20049;-75
2022/08/05 05:28:09;;;;;;;1.83;1.52;;;;;;;;;;5055050;28;20047;-75
2022/08/05 05:30:35;;;;;;;2.42;1.40;;;;;;;;;;5037469;28;20053;-75
2022/08/05 05:33:02;;;;;;;2.13;1.40;;;;;;;;;;5035595;28;20048;-75
2022/08/05 05:35:28;;;;;;;2.05;1.40;;;;;;;;;;5066814;28;20053;-75
2022/08/05 05:37:58;;;;;;;1.55;1.40;;;;;;;;;;5035331;28;20038;-75
2022/08/05 05:40:25;;;;;;;2.88;1.42;;;;;;;;;;5080159;28;20055;-75
2022/08/05 05:42:51;;;;;;;2.50;1.50;;;;;;;;;;5045219;28;20108;-75
2022/08/05 05:45:18;;;;;;;1.60;1.50;;;;;;;;;;5067357;28;20038;-75
2022/08/05 05:47:44;;;;;;;2.40;1.33;;;;;;;;;;5067159;28;20114;-75
2022/08/05 05:50:11;;;;;;;1.42;1.30;;;;;;;;;;5033914;28;20482;-76
2022/08/05 05:52:37;;;;;;;2.75;1.60;;;;;;;;;;5067138;28;20049;-75
2022/08/05 05:55:05;;;;;;;2.75;1.50;;;;;;;;;;5038249;28;20107;-75
2022/08/05 05:57:31;;;;;;;2.80;1.40;;;;;;;;;;5066235;28;20046;-75
2022/08/05 05:59:57;;;;;;;2.58;1.52;;;;;;;;;;5035068;28;20137;-75
2022/08/05 06:02:23;;;;;;;2.75;1.70;;;;;;;;;;5037364;28;20095;-76
2022/08/05 06:04:49;;;;;;;4.60;1.48;;;;;;;;;;5053902;28;20124;-75
2022/08/05 06:07:15;;;;;;;2.83;1.40;;;;;;;;;;5053321;28;20552;-75
2022/08/05 06:09:41;;;;;;;1.92;1.42;;;;;;;;;;5053553;28;20102;-75
2022/08/05 06:12:07;;;;;;;1.52;1.30;;;;;;;;;;5037523;28;20125;-75
2022/08/05 06:14:33;;;;;;;2.10;1.45;;;;;;;;;;5066908;28;20489;-75
2022/08/05 06:16:59;;;;;;;1.73;1.35;;;;;;;;;;5065744;28;20060;-75
2022/08/05 06:19:26;;;;;;;2.88;1.50;;;;;;;;;;5066393;28;20127;-75
2022/08/05 06:21:52;;;;;;;1.30;1.20;;;;;;;;;;5034393;28;20505;-75
2022/08/05 06:24:18;;;;;;;3.50;1.52;;;;;;;;;;5065656;28;20049;-75
2022/08/05 06:26:44;;;;;;;1.48;1.38;;;;;;;;;;5034550;28;20045;-75
2022/08/05 06:29:10;;;;;;;1.70;1.42;;;;;;;;;;5034221;28;20126;-75
2022/08/05 06:31:37;;;;;;;4.35;1.60;;;;;;;;;;5065491;28;20045;-75
2022/08/05 06:34:06;;;;;;;2.22;1.30;;;;;;;;;;5034688;28;20160;-75
2022/08/05 06:36:32;;;;;;;2.72;1.38;;;;;;;;;;5066116;28;20509;-75
2022/08/05 06:38:58;;;;;;;2.45;1.30;;;;;;;;;;5049514;28;20044;-75
2022/08/05 06:41:24;;;;;;;2.25;1.42;;;;;;;;;;5054567;28;20041;-76
2022/08/05 06:43:50;;;;;;;2.17;1.40;;;;;;;;;;5035342;28;20061;-75
2022/08/05 06:46:16;;;;;;;3.17;1.30;;;;;;;;;;5048110;28;20101;-75
2022/08/05 06:48:42;;;;;;;3.72;1.77;;;;;;;;;;5054052;28;20167;-75
2022/08/05 06:51:08;;;;;;;3.97;1.48;;;;;;;;;;5052726;28;20404;-75
2022/08/05 06:53:35;;;;;;;1.70;1.20;;;;;;;;;;5044184;28;20050;-75
2022/08/05 06:56:02;;;;;;;2.88;1.40;;;;;;;;;;5034179;28;20125;-76
2022/08/05 06:58:28;;;;;;;3.50;1.50;;;;;;;;;;5032138;28;20045;-75
2022/08/05 07:00:54;;;;;;;4.72;1.33;;;;;;;;;;5032120;28;20088;-75
2022/08/05 07:03:20;;;;;;;1.67;1.17;;;;;;;;;;5033743;28;20046;-75
2022/08/05 07:05:46;;;;;;;2.47;1.30;;;;;;;;;;5033419;28;20099;-75
2022/08/05 07:08:12;;;;;;;2.28;1.20;;;;;;;;;;5074662;28;20072;-74
2022/08/05 07:10:39;;;;;;;2.20;1.20;;;;;;;;;;5079647;28;20450;-75
2022/08/05 07:18:34;;;;;;;1.20;1.10;;;;;;;;;;5033898;28;20460;-76
2022/08/05 07:21:01;;;;;;;2.58;1.40;;;;;;;;;;5032036;28;20145;-75
2022/08/05 07:23:27;;;;;;;3.20;1.35;;;;;;;;;;5052207;28;20056;-75
2022/08/05 07:25:53;;;;;;;3.67;1.40;;;;;;;;;;5051677;28;20045;-75
2022/08/05 07:28:19;;;;;;;2.85;1.30;;;;;;;;;;5051540;28;20075;-75
2022/08/05 07:30:46;;;;;;;1.40;1.15;;;;;;;;;;5047376;28;20052;-75
2022/08/05 07:33:12;;;;;;;3.80;1.58;;;;;;;;;;5031977;28;20053;-75
2022/08/05 07:35:38;;;;;;;3.30;1.30;;;;;;;;;;5032157;28;20045;-75
2022/08/05 07:38:04;;;;;;;2.22;1.30;;;;;;;;;;5076586;28;20380;-75
2022/08/05 07:40:31;;;;;;;1.15;1.05;;;;;;;;;;5053054;28;20055;-75
2022/08/05 07:42:57;;;;;;;2.72;1.23;;;;;;;;;;5036428;28;20044;-75
2022/08/05 07:45:23;;;;;;;1.48;1.17;;;;;;;;;;5032867;28;20052;-75
2022/08/05 07:47:49;;;;;;;3.42;1.23;;;;;;;;;;5032222;28;20477;-75
2022/08/05 07:50:15;;;;;;;1.67;1.20;;;;;;;;;;5064985;28;20052;-75
2022/08/05 07:52:42;;;;;;;1.52;1.00;;;;;;;;;;5033132;28;20041;-75
2022/08/05 07:55:09;;;;;;;2.80;1.30;;;;;;;;;;5041462;28;20045;-75
2022/08/05 07:57:35;;;;;;;3.42;1.40;;;;;;;;;;5051416;28;20131;-75
2022/08/05 08:00:01;;;;;;;1.23;1.10;;;;;;;;;;5052953;28;20047;-75
2022/08/05 08:02:28;;;;;;;4.57;1.42;;;;;;;;;;5050786;28;20045;-75
2022/08/05 08:04:54;;;;;;;2.15;1.20;;;;;;;;;;5034945;28;20440;-75
2022/08/05 08:07:21;;;;;;;4.43;1.27;;;;;;;;;;5031379;28;20099;-75
2022/08/05 08:09:47;;;;;;;1.88;1.40;;;;;;;;;;5032037;28;20042;-75
2022/08/05 08:12:13;;;;;;;2.00;1.10;;;;;;;;;;5035037;28;20049;-75
2022/08/05 08:14:39;;;;;;;0.90;0.90;;;;;;;;;;5032974;28;20049;-75
2022/08/05 08:17:09;;;;;;;1.63;1.00;;;;;;;;;;5031837;28;20041;-75
2022/08/05 08:19:36;;;;;;;2.83;1.00;;;;;;;;;;5032181;28;20052;-75
2022/08/05 08:22:02;;;;;;;2.05;1.08;;;;;;;;;;5032321;28;20054;-75
2022/08/05 08:24:28;;;;;;;3.78;1.00;;;;;;;;;;5031763;28;20462;-75
2022/08/05 08:26:54;;;;;;;1.10;1.00;;;;;;;;;;5064372;28;20045;-75
2022/08/05 08:29:20;;;;;;;1.25;1.10;;;;;;;;;;5064526;28;20141;-75
2022/08/05 08:31:46;;;;;;;1.40;1.08;;;;;;;;;;5070263;28;20504;-75
2022/08/05 08:34:13;;;;;;;2.92;1.13;;;;;;;;;;5055473;28;20127;-75
2022/08/05 08:36:39;;;;;;;1.25;1.10;;;;;;;;;;5053211;28;20144;-75
2022/08/05 08:39:05;;;;;;;1.85;1.10;;;;;;;;;;5067231;28;20450;-76
2022/08/05 08:41:33;;;;;;;1.10;1.10;;;;;;;;;;5036562;28;20053;-75
2022/08/05 08:43:59;;;;;;;1.25;1.08;;;;;;;;;;5067601;28;20056;-75
2022/08/05 08:46:27;;;;;;;1.00;1.00;;;;;;;;;;5043693;28;20037;-74
2022/08/05 08:48:54;;;;;;;1.15;1.00;;;;;;;;;;5047878;28;20053;-75
2022/08/05 08:51:21;;;;;;;1.10;1.00;;;;;;;;;;5033733;28;20063;-75
2022/08/05 08:53:48;;;;;;;1.40;1.00;;;;;;;;;;5034743;28;20100;-75
2022/08/05 08:56:14;;;;;;;2.30;1.05;;;;;;;;;;5047817;28;20049;-75
2022/08/05 08:58:41;;;;;;;1.23;1.00;;;;;;;;;;5053984;28;20480;-75
2022/08/05 09:01:08;;;;;;;2.55;0.90;;;;;;;;;;5035949;28;20060;-75
2022/08/05 09:03:35;;;;;;;2.03;1.00;;;;;;;;;;5054387;28;20048;-74
2022/08/05 09:06:01;;;;;;;1.77;1.00;;;;;;;;;;5034130;28;20053;-75
2022/08/05 09:08:27;;;;;;;1.10;1.00;;;;;;;;;;5067279;28;20552;-75
2022/08/05 09:10:53;;;;;;;1.05;0.95;;;;;;;;;;5035049;28;20086;-75
2022/08/05 09:13:19;;;;;;;1.13;1.00;;;;;;;;;;5035145;28;20045;-74
2022/08/05 09:15:46;;;;;;;1.67;0.90;;;;;;;;;;5034324;28;20099;-75
2022/08/05 09:18:12;;;;;;;2.28;1.10;;;;;;;;;;5034106;28;20105;-75
2022/08/05 09:20:40;;;;;;;2.35;1.10;;;;;;;;;;5034882;28;20056;-75
2022/08/05 09:23:11;;;;;;;2.88;1.13;;;;;;;;;;5067524;28;20052;-75
2022/08/05 09:25:41;;;;;;;3.17;1.20;;;;;;;;;;5035578;28;20096;-75
2022/08/05 09:28:18;;;;;;;2.35;1.20;;;;;;;;;;5066806;28;20057;-75
2022/08/05 09:30:45;;;;;;;2.42;1.30;;;;;;;;;;5067398;28;20049;-75
2022/08/05 09:33:11;;;;;;;1.30;1.20;;;;;;;;;;5054444;28;20409;-75
2022/08/05 09:35:37;;;;;;;2.10;1.30;;;;;;;;;;5052421;28;20477;-75
2022/08/05 09:38:06;;;;;;;1.48;1.10;;;;;;;;;;5067612;28;20452;-75
2022/08/05 09:40:33;;;;;;;1.67;0.93;;;;;;;;;;5034951;28;20081;-75
2022/08/05 09:43:00;;;;;;;1.10;1.00;;;;;;;;;;5067112;28;20045;-75
2022/08/05 09:45:39;;;;;;;1.40;1.25;;;;;;;;;;5067102;28;20045;-75
2022/08/05 09:48:18;;;;;;;1.92;1.15;;;;;;;;;;5066388;28;20103;-75
2022/08/05 09:50:48;;;;;;;1.30;1.20;;;;;;;;;;5034986;28;20124;-75
2022/08/05 09:53:13;;;;;;;2.25;1.10;;;;;;;;;;5040836;28;20077;-75
2022/08/05 09:55:39;;;;;;;2.00;1.00;;;;;;;;;;5033537;28;20143;-75
2022/08/05 09:58:09;;;;;;;2.47;1.17;;;;;;;;;;5035202;28;20051;-75
2022/08/05 10:00:35;;;;;;;1.33;1.00;;;;;;;;;;5034728;28;20179;-75
2022/08/05 10:03:08;;;;;;;2.33;1.00;;;;;;;;;;5034266;28;20132;-75
2022/08/05 10:05:34;;;;;;;1.00;1.00;;;;;;;;;;5066836;28;20184;-74
2022/08/05 10:08:02;;;;;;;1.38;1.10;;;;;;;;;;5066364;28;20057;-75
2022/08/05 10:10:43;;;;;;;1.35;1.00;;;;;;;;;;5066360;28;20045;-75
2022/08/05 10:13:10;;;;;;;3.10;1.23;;;;;;;;;;5066738;28;20064;-75
2022/08/05 10:15:38;;;;;;;2.25;1.20;;;;;;;;;;5065948;28;20100;-75
2022/08/05 10:18:04;;;;;;;1.17;1.08;;;;;;;;;;5066870;28;20050;-75
2022/08/05 10:20:31;;;;;;;2.38;1.00;;;;;;;;;;5066065;28;20567;-75
2022/08/05 10:22:58;;;;;;;2.42;0.90;;;;;;;;;;5073635;28;20107;-75
2022/08/05 10:25:23;;;;;;;1.15;0.88;;;;;;;;;;5053056;28;20447;-74
2022/08/05 10:27:51;;;;;;;1.65;1.02;;;;;;;;;;5054431;28;20106;-74
2022/08/05 10:30:17;;;;;;;1.27;0.90;;;;;;;;;;5051455;28;20088;-74
2022/08/05 10:32:44;;;;;;;2.92;1.02;;;;;;;;;;5054649;28;20087;-75
2022/08/05 10:35:10;;;;;;;2.15;1.08;;;;;;;;;;5047581;28;20048;-75
2022/08/05 10:37:36;;;;;;;1.77;1.13;;;;;;;;;;5033245;28;20049;-75
2022/08/05 10:40:04;;;;;;;1.25;1.10;;;;;;;;;;5034246;28;20602;-74
2022/08/05 10:42:35;;;;;;;2.05;1.10;;;;;;;;;;5033071;28;20053;-75
2022/08/05 10:45:01;;;;;;;1.38;1.05;;;;;;;;;;5032053;28;20049;-75
2022/08/05 10:47:32;;;;;;;3.08;2.58;;;;;;;;;;5071383;28;20049;-75
2022/08/05 10:50:12;;;;;;;2.03;1.30;;;;;;;;;;5034376;28;20057;-74
2022/08/05 10:52:40;;;;;;;0.90;0.90;;;;;;;;;;5032846;28;20129;-75
2022/08/05 10:55:08;;;;;;;1.05;1.00;;;;;;;;;;5065517;28;20477;-74
2022/08/05 10:57:36;;;;;;;1.40;1.13;;;;;;;;;;5065036;28;20498;-75
2022/08/05 11:00:09;;;;;;;1.25;1.10;;;;;;;;;;5065945;28;20096;-75
2022/08/05 11:02:36;;;;;;;2.67;1.13;;;;;;;;;;5066100;28;20053;-74
2022/08/05 11:05:06;;;;;;;3.63;1.20;;;;;;;;;;5065394;28;20092;-75
2022/08/05 11:07:33;;;;;;;2.20;1.10;;;;;;;;;;5065585;28;20064;-75
2022/08/05 11:10:01;;;;;;;3.78;1.30;;;;;;;;;;5065934;28;20102;-74
2022/08/05 11:12:37;;;;;;;2.58;1.10;;;;;;;;;;5064756;28;20564;-74
2022/08/05 11:15:06;;;;;;;0.90;0.90;;;;;;;;;;5068242;28;20046;-75
2022/08/05 11:17:34;;;;;;;6.38;1.50;;;;;;;;;;5065614;28;20060;-75
2022/08/05 11:20:00;;;;;;;4.95;1.10;;;;;;;;;;5064620;28;20049;-75
2022/08/05 11:22:45;;;;;;;6.65;1.40;;;;;;;;;;5065414;28;20093;-75
2022/08/05 11:25:29;;;;;;;1.58;1.00;;;;;;;;;;5065233;28;20559;-74
2022/08/05 11:28:11;;;;;;;2.72;1.10;;;;;;;;;;5075991;28;20053;-75
2022/08/05 11:31:04;;;;;;;2.17;1.13;;;;;;;;;;5052424;28;20045;-75
2022/08/05 11:33:30;;;;;;;9.68;2.00;;;;;;;;;;5040051;28;20057;-75
2022/08/05 11:35:58;;;;;;;1.98;1.10;;;;;;;;;;5031961;28;20402;-75
2022/08/05 11:38:54;;;;;;;4.60;1.10;;;;;;;;;;5031914;28;20041;-75
2022/08/05 11:41:22;;;;;;;2.00;1.10;;;;;;;;;;5046941;28;20051;-75
2022/08/05 11:43:54;;;;;;;1.02;0.90;;;;;;;;;;5052780;28;20037;-74
2022/08/05 11:46:31;;;;;;;1.00;1.00;;;;;;;;;;5046504;28;20064;-75
2022/08/05 11:48:57;;;;;;;1.45;1.20;;;;;;;;;;5064681;28;20045;-75
2022/08/05 11:51:26;;;;;;;0.98;0.90;;;;;;;;;;5074495;28;20098;-75
2022/08/05 11:53:53;;;;;;;3.05;1.00;;;;;;;;;;5052246;28;20045;-75
2022/08/05 11:56:19;;;;;;;2.60;1.10;;;;;;;;;;5040870;28;20390;-75
2022/08/05 11:58:46;;;;;;;0.98;0.93;;;;;;;;;;5032979;28;20041;-75
2022/08/05 12:01:19;;;;;;;2.78;1.20;;;;;;;;;;5032236;28;20084;-76
2022/08/05 12:03:46;;;;;;;0.98;0.93;;;;;;;;;;5065218;28;20057;-75
2022/08/05 12:06:13;;;;;;;1.98;0.98;;;;;;;;;;5032617;28;20060;-75
2022/08/05 12:08:43;;;;;;;1.10;1.00;;;;;;;;;;5071156;28;20052;-76
2022/08/05 12:11:10;;;;;;;3.10;1.20;;;;;;;;;;5051827;28;20397;-76
2022/08/05 12:13:36;;;;;;;1.48;1.00;;;;;;;;;;5051573;28;20494;-75
2022/08/05 12:16:03;;;;;;;3.22;1.20;;;;;;;;;;5050288;28;20048;-76
2022/08/05 12:18:33;;;;;;;1.63;1.00;;;;;;;;;;5051322;28;20055;-75
2022/08/05 12:21:10;;;;;;;18.88;3.05;;;;;;;;;;5037335;28;20068;-75
2022/08/05 12:23:36;;;;;;;11.75;2.80;;;;;;;;;;5030768;28;20378;-75
2022/08/05 12:26:02;;;;;;;14.48;2.70;;;;;;;;;;5032497;28;20045;-76
2022/08/05 12:28:35;;;;;;;15.30;2.72;;;;;;;;;;5077101;28;20539;-77
2022/08/05 12:31:01;;;;;;;;;;;;;;;;;;5052275;28;20052;-76
2022/08/05 12:33:27;;;;;;;5.93;1.60;;;;;;;;;;5040152;28;19944;-76
2022/08/05 12:35:54;;;;;;;2.13;1.30;;;;;;;;;;5064339;28;20049;-76
2022/08/05 12:38:21;;;;;;;7.63;1.60;;;;;;;;;;5031999;28;20045;-76
2022/08/05 12:40:47;;;;;;;4.38;1.27;;;;;;;;;;5063898;28;20132;-75
2022/08/05 12:43:13;;;;;;;11.30;1.90;;;;;;;;;;5063808;28;20049;-75
2022/08/05 12:45:49;;;;;;;7.68;1.52;;;;;;;;;;5064706;28;20049;-75
2022/08/05 12:48:16;;;;;;;6.28;1.40;;;;;;;;;;5072980;28;20045;-75
2022/08/05 12:50:42;;;;;;;7.13;1.70;;;;;;;;;;5051146;28;20045;-75
2022/08/05 12:53:08;;;;;;;4.90;1.38;;;;;;;;;;5036386;28;20492;-75
2022/08/05 12:55:34;;;;;;;3.55;1.35;;;;;;;;;;5030967;28;20053;-76
2022/08/05 12:58:00;;;;;;;1.45;1.20;;;;;;;;;;5035327;28;20045;-77
2022/08/05 13:00:28;;;;;;;2.38;1.33;;;;;;;;;;5050699;28;20091;-76
2022/08/05 13:02:56;;;;;;;3.97;1.30;;;;;;;;;;5033782;28;20187;-76
2022/08/05 13:05:22;;;;;;;6.68;1.48;;;;;;;;;;5030909;28;20050;-76
2022/08/05 13:07:48;;;;;;;2.50;1.27;;;;;;;;;;5084483;28;20334;-75
2022/08/05 13:10:15;;;;;;;8.15;1.33;;;;;;;;;;5050575;28;20049;-76
2022/08/05 13:12:42;;;;;;;3.83;1.50;;;;;;;;;;5036820;28;20053;-76
2022/08/05 13:15:09;;;;;;;6.97;1.92;;;;;;;;;;5032366;28;20046;-76
2022/08/05 13:17:36;;;;;;;6.90;1.60;;;;;;;;;;5050896;28;20548;-75
2022/08/05 13:20:09;;;;;;;5.68;1.60;;;;;;;;;;5054118;28;20064;-75
2022/08/05 13:22:35;;;;;;;;;;;;;;;;;;5049308;28;20137;-75
2022/08/05 13:25:03;;;;;;;5.93;1.50;;;;;;;;;;5034419;28;20018;-76
2022/08/05 13:27:33;;;;;;;3.22;1.70;;;;;;;;;;5035222;28;20041;-75
2022/08/05 13:29:59;;;;;;;1.95;1.17;;;;;;;;;;5067735;28;20052;-76
2022/08/05 13:32:26;;;;;;;4.00;1.52;;;;;;;;;;5066223;28;20132;-77
2022/08/05 13:34:53;;;;;;;4.22;1.40;;;;;;;;;;5067557;28;20044;-76
2022/08/05 13:37:20;;;;;;;4.18;1.20;;;;;;;;;;5067272;28;20133;-76
2022/08/05 13:39:46;;;;;;;4.72;1.20;;;;;;;;;;5034480;28;20116;-76
2022/08/05 13:42:12;;;;;;;5.10;1.15;;;;;;;;;;5035175;28;20485;-76
2022/08/05 13:44:38;;;;;;;2.97;1.02;;;;;;;;;;5067616;28;20088;-76
2022/08/05 13:47:04;;;;;;;3.63;1.20;;;;;;;;;;5034596;28;20107;-76
2022/08/05 13:49:30;;;;;;;1.10;1.05;;;;;;;;;;5076179;28;20060;-77
2022/08/05 13:51:57;;;;;;;2.88;1.25;;;;;;;;;;5053690;28;20079;-75
2022/08/05 13:54:25;;;;;;;2.50;1.00;;;;;;;;;;5053141;28;20089;-76
2022/08/05 13:56:51;;;;;;;0.90;0.90;;;;;;;;;;5053865;28;20076;-76
2022/08/05 13:59:21;;;;;;;3.42;1.20;;;;;;;;;;5053667;28;20049;-76
2022/08/05 14:01:48;;;;;;;4.18;1.92;;;;;;;;;;5049135;28;20051;-75
2022/08/05 14:06:58;;;;;;;2.58;1.65;;;;;;;;;;5033498;28;20057;-76
2022/08/05 14:09:24;;;;;;;2.42;1.20;;;;;;;;;;5033013;28;20091;-76
2022/08/05 14:11:50;;;;;;;2.63;1.10;;;;;;;;;;5066817;28;20459;-76
2022/08/05 14:14:16;;;;;;;1.85;1.20;;;;;;;;;;5034933;28;20042;-76
2022/08/05 14:16:42;;;;;;;3.10;1.20;;;;;;;;;;5034212;28;20449;-76
2022/08/05 14:19:08;;;;;;;1.05;1.00;;;;;;;;;;5071485;28;20052;-76
2022/08/05 14:21:34;;;;;;;1.20;1.10;;;;;;;;;;5036112;28;20115;-76
2022/08/05 14:24:00;;;;;;;1.30;1.17;;;;;;;;;;5066834;28;20716;-76
2022/08/05 14:26:26;;;;;;;2.38;1.10;;;;;;;;;;5034726;28;20037;-76
2022/08/05 14:28:52;;;;;;;1.20;1.10;;;;;;;;;;5078640;28;20503;-77
2022/08/05 14:31:19;;;;;;;0.90;0.90;;;;;;;;;;5052287;28;20052;-77
2022/08/05 14:33:45;;;;;;;2.13;1.10;;;;;;;;;;5034725;28;20042;-76
2022/08/05 14:36:11;;;;;;;1.42;1.15;;;;;;;;;;5033677;28;20132;-76
2022/08/05 14:38:37;;;;;;;1.10;1.10;;;;;;;;;;5034302;28;20133;-77
2022/08/05 14:41:04;;;;;;;1.20;1.10;;;;;;;;;;5045707;28;20131;-77
2022/08/05 14:43:30;;;;;;;2.20;1.10;;;;;;;;;;5053408;28;20131;-76
2022/08/05 14:45:56;;;;;;;1.98;1.10;;;;;;;;;;5052328;28;20088;-76
2022/08/05 14:48:22;;;;;;;2.13;1.13;;;;;;;;;;5038892;28;20485;-76
2022/08/05 14:50:48;;;;;;;1.27;1.05;;;;;;;;;;5033128;28;20037;-76
2022/08/05 14:53:17;;;;;;;1.30;1.10;;;;;;;;;;5032510;28;20128;-76